Alliance, Nebraska
Current Conditions -  °F | °C
As of 4:53 AM on Friday 28 Nov 2014 (Local Time) from KAIA Reporting Station
Clear Clear  
Wind Chill: 23°   Ceiling: Unl
Heat Index: 29°   Visibility: 10mi
Dew Point: 23°   Wind: 6mph
Humidity: 78%   Direction: 250°WSW
Pressure: 29.83"   Gusts: NA
Location:  42.1°N, 102.87°W
Report Text: KAIA 281153Z AUTO 25005KT 10SM CLR M02/M05 A2983 RMK AO2 SLP117 T10171050 11011 21039 58019
Loading
Personal Weather Stations






























Interactive Weather Map New forecast layout! Learn more

10-Day Weather Forecast

Advertisements
Track Severe Weather on mobile